sensor_id;sensor_type;location;lat;lon;timestamp;P1;durP1;ratioP1;P2;durP2;ratioP2
17079;SDS011;8655;57.106;-2.088;2023-03-13T00:01:33;2.00;;;1.50;;
17079;SDS011;8655;57.106;-2.088;2023-03-13T00:04:06;2.40;;;1.47;;
17079;SDS011;8655;57.106;-2.088;2023-03-13T00:06:33;1.73;;;1.40;;
17079;SDS011;8655;57.106;-2.088;2023-03-13T00:09:01;2.57;;;1.70;;
17079;SDS011;8655;57.106;-2.088;2023-03-13T00:11:29;2.10;;;1.60;;
17079;SDS011;8655;57.106;-2.088;2023-03-13T00:13:56;1.97;;;1.50;;
17079;SDS011;8655;57.106;-2.088;2023-03-13T00:16:23;1.80;;;1.30;;
17079;SDS011;8655;57.106;-2.088;2023-03-13T00:18:50;3.27;;;1.70;;
17079;SDS011;8655;57.106;-2.088;2023-03-13T00:21:17;2.07;;;1.40;;
17079;SDS011;8655;57.106;-2.088;2023-03-13T00:23:45;2.77;;;1.70;;
17079;SDS011;8655;57.106;-2.088;2023-03-13T00:26:12;1.80;;;1.43;;
17079;SDS011;8655;57.106;-2.088;2023-03-13T00:28:40;2.33;;;1.50;;
17079;SDS011;8655;57.106;-2.088;2023-03-13T00:31:10;2.37;;;1.50;;
17079;SDS011;8655;57.106;-2.088;2023-03-13T00:33:39;3.20;;;1.60;;
17079;SDS011;8655;57.106;-2.088;2023-03-13T00:36:07;1.77;;;1.50;;
17079;SDS011;8655;57.106;-2.088;2023-03-13T00:38:38;1.97;;;1.40;;
17079;SDS011;8655;57.106;-2.088;2023-03-13T00:41:08;1.83;;;1.40;;
17079;SDS011;8655;57.106;-2.088;2023-03-13T00:43:39;2.07;;;1.70;;
17079;SDS011;8655;57.106;-2.088;2023-03-13T00:46:06;1.90;;;1.43;;
17079;SDS011;8655;57.106;-2.088;2023-03-13T00:48:33;1.77;;;1.47;;
17079;SDS011;8655;57.106;-2.088;2023-03-13T00:50:59;2.30;;;1.50;;
17079;SDS011;8655;57.106;-2.088;2023-03-13T00:53:26;1.40;;;1.30;;
17079;SDS011;8655;57.106;-2.088;2023-03-13T00:55:56;1.60;;;1.30;;
17079;SDS011;8655;57.106;-2.088;2023-03-13T00:58:24;2.07;;;1.60;;
17079;SDS011;8655;57.106;-2.088;2023-03-13T01:00:51;1.90;;;1.40;;
17079;SDS011;8655;57.106;-2.088;2023-03-13T01:03:18;1.93;;;1.40;;
17079;SDS011;8655;57.106;-2.088;2023-03-13T01:05:44;3.23;;;1.60;;
17079;SDS011;8655;57.106;-2.088;2023-03-13T01:08:18;1.40;;;1.20;;
17079;SDS011;8655;57.106;-2.088;2023-03-13T01:10:44;2.27;;;1.37;;
17079;SDS011;8655;57.106;-2.088;2023-03-13T01:13:10;2.60;;;1.50;;
17079;SDS011;8655;57.106;-2.088;2023-03-13T01:15:35;2.87;;;1.40;;
17079;SDS011;8655;57.106;-2.088;2023-03-13T01:18:01;1.90;;;1.20;;
17079;SDS011;8655;57.106;-2.088;2023-03-13T01:20:27;2.40;;;1.40;;
17079;SDS011;8655;57.106;-2.088;2023-03-13T01:22:54;2.63;;;1.50;;
17079;SDS011;8655;57.106;-2.088;2023-03-13T01:25:20;1.80;;;1.40;;
17079;SDS011;8655;57.106;-2.088;2023-03-13T01:27:46;1.83;;;1.30;;
17079;SDS011;8655;57.106;-2.088;2023-03-13T01:30:11;1.70;;;1.30;;
17079;SDS011;8655;57.106;-2.088;2023-03-13T01:32:37;1.67;;;1.40;;
17079;SDS011;8655;57.106;-2.088;2023-03-13T01:35:03;1.50;;;1.40;;
17079;SDS011;8655;57.106;-2.088;2023-03-13T01:37:29;1.40;;;1.30;;
17079;SDS011;8655;57.106;-2.088;2023-03-13T01:39:55;2.33;;;1.47;;
17079;SDS011;8655;57.106;-2.088;2023-03-13T01:42:20;1.83;;;1.60;;
17079;SDS011;8655;57.106;-2.088;2023-03-13T01:44:52;1.60;;;1.13;;
17079;SDS011;8655;57.106;-2.088;2023-03-13T01:47:19;1.80;;;1.40;;
17079;SDS011;8655;57.106;-2.088;2023-03-13T01:49:44;1.63;;;1.23;;
17079;SDS011;8655;57.106;-2.088;2023-03-13T01:52:16;2.03;;;1.47;;
17079;SDS011;8655;57.106;-2.088;2023-03-13T02:00:05;2.10;;;1.57;;
17079;SDS011;8655;57.106;-2.088;2023-03-13T02:02:40;1.90;;;1.50;;
17079;SDS011;8655;57.106;-2.088;2023-03-13T02:05:10;1.20;;;1.10;;
17079;SDS011;8655;57.106;-2.088;2023-03-13T02:10:06;2.00;;;1.33;;
17079;SDS011;8655;57.106;-2.088;2023-03-13T02:12:34;1.90;;;1.50;;
17079;SDS011;8655;57.106;-2.088;2023-03-13T02:15:04;1.87;;;1.40;;
17079;SDS011;8655;57.106;-2.088;2023-03-13T02:17:35;2.20;;;1.50;;
17079;SDS011;8655;57.106;-2.088;2023-03-13T02:20:02;1.70;;;1.50;;
17079;SDS011;8655;57.106;-2.088;2023-03-13T02:28:00;2.30;;;1.60;;
17079;SDS011;8655;57.106;-2.088;2023-03-13T02:30:29;1.90;;;1.53;;
17079;SDS011;8655;57.106;-2.088;2023-03-13T02:32:55;1.40;;;1.30;;
17079;SDS011;8655;57.106;-2.088;2023-03-13T02:35:21;1.47;;;1.30;;
17079;SDS011;8655;57.106;-2.088;2023-03-13T02:37:52;1.73;;;1.50;;
17079;SDS011;8655;57.106;-2.088;2023-03-13T02:40:43;1.90;;;1.70;;
17079;SDS011;8655;57.106;-2.088;2023-03-13T02:43:11;1.97;;;1.73;;
17079;SDS011;8655;57.106;-2.088;2023-03-13T02:45:41;2.10;;;1.63;;
17079;SDS011;8655;57.106;-2.088;2023-03-13T02:48:06;2.00;;;1.80;;
17079;SDS011;8655;57.106;-2.088;2023-03-13T02:50:32;2.13;;;1.70;;
17079;SDS011;8655;57.106;-2.088;2023-03-13T02:53:01;1.87;;;1.63;;
17079;SDS011;8655;57.106;-2.088;2023-03-13T02:55:39;1.67;;;1.30;;
17079;SDS011;8655;57.106;-2.088;2023-03-13T02:58:06;1.93;;;1.60;;
17079;SDS011;8655;57.106;-2.088;2023-03-13T03:00:32;1.80;;;1.70;;
17079;SDS011;8655;57.106;-2.088;2023-03-13T03:02:58;2.10;;;1.57;;
17079;SDS011;8655;57.106;-2.088;2023-03-13T03:05:23;2.03;;;1.80;;
17079;SDS011;8655;57.106;-2.088;2023-03-13T03:07:49;1.80;;;1.50;;
17079;SDS011;8655;57.106;-2.088;2023-03-13T03:10:16;1.63;;;1.53;;
17079;SDS011;8655;57.106;-2.088;2023-03-13T03:12:42;1.63;;;1.40;;
17079;SDS011;8655;57.106;-2.088;2023-03-13T03:15:08;1.63;;;1.50;;
17079;SDS011;8655;57.106;-2.088;2023-03-13T03:17:34;2.03;;;1.60;;
17079;SDS011;8655;57.106;-2.088;2023-03-13T03:20:01;2.00;;;1.60;;
17079;SDS011;8655;57.106;-2.088;2023-03-13T03:22:28;1.50;;;1.40;;
17079;SDS011;8655;57.106;-2.088;2023-03-13T03:24:54;2.43;;;1.80;;
17079;SDS011;8655;57.106;-2.088;2023-03-13T03:27:20;1.40;;;1.30;;
17079;SDS011;8655;57.106;-2.088;2023-03-13T03:29:45;1.70;;;1.50;;
17079;SDS011;8655;57.106;-2.088;2023-03-13T03:32:11;2.00;;;1.50;;
17079;SDS011;8655;57.106;-2.088;2023-03-13T03:34:37;1.40;;;1.30;;
17079;SDS011;8655;57.106;-2.088;2023-03-13T03:37:02;1.40;;;1.30;;
17079;SDS011;8655;57.106;-2.088;2023-03-13T03:39:28;1.80;;;1.50;;
17079;SDS011;8655;57.106;-2.088;2023-03-13T03:41:54;1.93;;;1.70;;
17079;SDS011;8655;57.106;-2.088;2023-03-13T03:44:19;1.43;;;1.33;;
17079;SDS011;8655;57.106;-2.088;2023-03-13T03:46:45;1.67;;;1.50;;
17079;SDS011;8655;57.106;-2.088;2023-03-13T03:49:10;2.23;;;1.67;;
17079;SDS011;8655;57.106;-2.088;2023-03-13T03:51:36;2.00;;;1.60;;
17079;SDS011;8655;57.106;-2.088;2023-03-13T03:54:02;1.83;;;1.50;;
17079;SDS011;8655;57.106;-2.088;2023-03-13T03:56:27;2.40;;;1.50;;
17079;SDS011;8655;57.106;-2.088;2023-03-13T03:58:53;1.50;;;1.40;;
17079;SDS011;8655;57.106;-2.088;2023-03-13T04:01:19;1.40;;;1.30;;
17079;SDS011;8655;57.106;-2.088;2023-03-13T04:03:44;1.60;;;1.40;;
17079;SDS011;8655;57.106;-2.088;2023-03-13T04:06:10;1.47;;;1.37;;
17079;SDS011;8655;57.106;-2.088;2023-03-13T04:08:36;2.03;;;1.73;;
17079;SDS011;8655;57.106;-2.088;2023-03-13T04:11:01;1.90;;;1.40;;
17079;SDS011;8655;57.106;-2.088;2023-03-13T04:13:27;1.50;;;1.30;;
17079;SDS011;8655;57.106;-2.088;2023-03-13T04:15:53;1.50;;;1.30;;
17079;SDS011;8655;57.106;-2.088;2023-03-13T04:18:18;2.07;;;1.70;;
17079;SDS011;8655;57.106;-2.088;2023-03-13T04:20:44;1.50;;;1.40;;
17079;SDS011;8655;57.106;-2.088;2023-03-13T04:23:10;1.40;;;1.30;;
17079;SDS011;8655;57.106;-2.088;2023-03-13T04:25:36;2.07;;;1.40;;
17079;SDS011;8655;57.106;-2.088;2023-03-13T04:28:02;1.50;;;1.40;;
17079;SDS011;8655;57.106;-2.088;2023-03-13T04:30:27;1.40;;;1.30;;
17079;SDS011;8655;57.106;-2.088;2023-03-13T04:32:53;1.53;;;1.20;;
17079;SDS011;8655;57.106;-2.088;2023-03-13T04:35:19;1.50;;;1.40;;
17079;SDS011;8655;57.106;-2.088;2023-03-13T04:37:45;1.50;;;1.40;;
17079;SDS011;8655;57.106;-2.088;2023-03-13T04:40:10;1.57;;;1.47;;
17079;SDS011;8655;57.106;-2.088;2023-03-13T04:42:38;2.00;;;1.40;;
17079;SDS011;8655;57.106;-2.088;2023-03-13T04:45:04;1.43;;;1.30;;
17079;SDS011;8655;57.106;-2.088;2023-03-13T04:47:31;1.33;;;1.20;;
17079;SDS011;8655;57.106;-2.088;2023-03-13T04:49:56;1.23;;;1.13;;
17079;SDS011;8655;57.106;-2.088;2023-03-13T04:52:22;1.50;;;1.30;;
17079;SDS011;8655;57.106;-2.088;2023-03-13T04:54:48;1.30;;;1.20;;
17079;SDS011;8655;57.106;-2.088;2023-03-13T04:57:15;1.30;;;1.20;;
17079;SDS011;8655;57.106;-2.088;2023-03-13T04:59:41;1.13;;;1.10;;
17079;SDS011;8655;57.106;-2.088;2023-03-13T05:02:08;1.47;;;1.37;;
17079;SDS011;8655;57.106;-2.088;2023-03-13T05:04:36;1.40;;;1.30;;
17079;SDS011;8655;57.106;-2.088;2023-03-13T05:07:02;1.73;;;1.23;;
17079;SDS011;8655;57.106;-2.088;2023-03-13T05:09:27;1.13;;;1.03;;
17079;SDS011;8655;57.106;-2.088;2023-03-13T05:11:53;1.20;;;1.10;;
17079;SDS011;8655;57.106;-2.088;2023-03-13T05:14:19;1.30;;;1.20;;
17079;SDS011;8655;57.106;-2.088;2023-03-13T05:16:44;1.20;;;1.10;;
17079;SDS011;8655;57.106;-2.088;2023-03-13T05:19:10;1.23;;;1.00;;
17079;SDS011;8655;57.106;-2.088;2023-03-13T05:21:36;1.20;;;1.10;;
17079;SDS011;8655;57.106;-2.088;2023-03-13T05:24:01;1.40;;;1.30;;
17079;SDS011;8655;57.106;-2.088;2023-03-13T05:26:27;1.13;;;1.03;;
17079;SDS011;8655;57.106;-2.088;2023-03-13T05:28:52;1.13;;;1.03;;
17079;SDS011;8655;57.106;-2.088;2023-03-13T05:31:18;1.40;;;1.30;;
17079;SDS011;8655;57.106;-2.088;2023-03-13T05:33:44;1.17;;;1.07;;
17079;SDS011;8655;57.106;-2.088;2023-03-13T05:36:09;1.20;;;1.10;;
17079;SDS011;8655;57.106;-2.088;2023-03-13T05:38:35;1.40;;;1.20;;
17079;SDS011;8655;57.106;-2.088;2023-03-13T05:41:01;1.20;;;1.10;;
17079;SDS011;8655;57.106;-2.088;2023-03-13T05:43:26;1.57;;;1.20;;
17079;SDS011;8655;57.106;-2.088;2023-03-13T05:45:52;1.10;;;1.00;;
17079;SDS011;8655;57.106;-2.088;2023-03-13T05:48:18;0.90;;;0.90;;
17079;SDS011;8655;57.106;-2.088;2023-03-13T05:50:43;0.80;;;0.80;;
17079;SDS011;8655;57.106;-2.088;2023-03-13T05:53:09;1.00;;;1.00;;
17079;SDS011;8655;57.106;-2.088;2023-03-13T05:55:35;1.03;;;1.00;;
17079;SDS011;8655;57.106;-2.088;2023-03-13T05:58:00;1.23;;;1.03;;
17079;SDS011;8655;57.106;-2.088;2023-03-13T06:00:26;1.30;;;1.20;;
17079;SDS011;8655;57.106;-2.088;2023-03-13T06:02:52;0.93;;;0.93;;
17079;SDS011;8655;57.106;-2.088;2023-03-13T06:05:17;1.03;;;1.00;;
17079;SDS011;8655;57.106;-2.088;2023-03-13T06:07:43;0.90;;;0.90;;
17079;SDS011;8655;57.106;-2.088;2023-03-13T06:10:09;0.90;;;0.90;;
17079;SDS011;8655;57.106;-2.088;2023-03-13T06:12:35;0.90;;;0.90;;
17079;SDS011;8655;57.106;-2.088;2023-03-13T06:15:01;1.20;;;1.10;;
17079;SDS011;8655;57.106;-2.088;2023-03-13T06:17:27;0.93;;;0.80;;
17079;SDS011;8655;57.106;-2.088;2023-03-13T06:19:52;1.10;;;1.00;;
17079;SDS011;8655;57.106;-2.088;2023-03-13T06:22:18;1.00;;;0.90;;
17079;SDS011;8655;57.106;-2.088;2023-03-13T06:24:44;1.20;;;1.10;;
17079;SDS011;8655;57.106;-2.088;2023-03-13T06:27:10;1.00;;;0.87;;
17079;SDS011;8655;57.106;-2.088;2023-03-13T06:29:36;0.90;;;0.90;;
17079;SDS011;8655;57.106;-2.088;2023-03-13T06:32:02;0.83;;;0.83;;
17079;SDS011;8655;57.106;-2.088;2023-03-13T06:34:27;0.80;;;0.80;;
17079;SDS011;8655;57.106;-2.088;2023-03-13T06:36:53;1.37;;;1.00;;
17079;SDS011;8655;57.106;-2.088;2023-03-13T06:39:19;1.13;;;1.03;;
17079;SDS011;8655;57.106;-2.088;2023-03-13T06:41:44;1.13;;;1.03;;
17079;SDS011;8655;57.106;-2.088;2023-03-13T06:44:10;0.80;;;0.80;;
17079;SDS011;8655;57.106;-2.088;2023-03-13T06:46:36;0.70;;;0.70;;
17079;SDS011;8655;57.106;-2.088;2023-03-13T06:49:01;0.90;;;0.90;;
17079;SDS011;8655;57.106;-2.088;2023-03-13T06:51:29;1.00;;;1.00;;
17079;SDS011;8655;57.106;-2.088;2023-03-13T06:53:55;0.57;;;0.57;;
17079;SDS011;8655;57.106;-2.088;2023-03-13T06:56:21;0.80;;;0.80;;
17079;SDS011;8655;57.106;-2.088;2023-03-13T06:58:47;0.70;;;0.70;;
17079;SDS011;8655;57.106;-2.088;2023-03-13T07:01:13;0.50;;;0.50;;
17079;SDS011;8655;57.106;-2.088;2023-03-13T07:03:40;1.27;;;0.80;;
17079;SDS011;8655;57.106;-2.088;2023-03-13T07:06:07;0.70;;;0.70;;
17079;SDS011;8655;57.106;-2.088;2023-03-13T07:08:34;0.73;;;0.73;;
17079;SDS011;8655;57.106;-2.088;2023-03-13T07:11:02;0.70;;;0.70;;
17079;SDS011;8655;57.106;-2.088;2023-03-13T07:13:29;0.53;;;0.53;;
17079;SDS011;8655;57.106;-2.088;2023-03-13T07:15:58;0.87;;;0.70;;
17079;SDS011;8655;57.106;-2.088;2023-03-13T07:18:28;0.60;;;0.60;;
17079;SDS011;8655;57.106;-2.088;2023-03-13T07:20:54;0.97;;;0.73;;
17079;SDS011;8655;57.106;-2.088;2023-03-13T07:23:22;0.77;;;0.77;;
17079;SDS011;8655;57.106;-2.088;2023-03-13T07:25:55;0.53;;;0.53;;
17079;SDS011;8655;57.106;-2.088;2023-03-13T07:28:22;0.70;;;0.70;;
17079;SDS011;8655;57.106;-2.088;2023-03-13T07:30:48;0.90;;;0.70;;
17079;SDS011;8655;57.106;-2.088;2023-03-13T07:33:15;0.70;;;0.70;;
17079;SDS011;8655;57.106;-2.088;2023-03-13T07:35:46;0.50;;;0.50;;
17079;SDS011;8655;57.106;-2.088;2023-03-13T07:38:15;1.37;;;0.60;;
17079;SDS011;8655;57.106;-2.088;2023-03-13T07:40:46;0.60;;;0.60;;
17079;SDS011;8655;57.106;-2.088;2023-03-13T07:43:16;0.80;;;0.80;;
17079;SDS011;8655;57.106;-2.088;2023-03-13T07:48:16;0.67;;;0.67;;
17079;SDS011;8655;57.106;-2.088;2023-03-13T07:50:43;0.90;;;0.70;;
17079;SDS011;8655;57.106;-2.088;2023-03-13T07:53:08;0.60;;;0.60;;
17079;SDS011;8655;57.106;-2.088;2023-03-13T07:55:34;0.97;;;0.90;;
17079;SDS011;8655;57.106;-2.088;2023-03-13T07:58:00;0.77;;;0.70;;
17079;SDS011;8655;57.106;-2.088;2023-03-13T08:00:25;0.60;;;0.60;;
17079;SDS011;8655;57.106;-2.088;2023-03-13T08:02:51;1.23;;;0.80;;
17079;SDS011;8655;57.106;-2.088;2023-03-13T08:05:17;1.17;;;0.80;;
17079;SDS011;8655;57.106;-2.088;2023-03-13T08:07:43;1.20;;;0.90;;
17079;SDS011;8655;57.106;-2.088;2023-03-13T08:10:09;0.77;;;0.70;;
17079;SDS011;8655;57.106;-2.088;2023-03-13T08:12:35;1.70;;;0.60;;
17079;SDS011;8655;57.106;-2.088;2023-03-13T08:15:01;0.77;;;0.60;;
17079;SDS011;8655;57.106;-2.088;2023-03-13T08:17:29;0.80;;;0.80;;
17079;SDS011;8655;57.106;-2.088;2023-03-13T08:19:55;0.77;;;0.50;;
17079;SDS011;8655;57.106;-2.088;2023-03-13T08:22:21;0.80;;;0.80;;
17079;SDS011;8655;57.106;-2.088;2023-03-13T08:24:47;0.70;;;0.60;;
17079;SDS011;8655;57.106;-2.088;2023-03-13T08:27:12;0.80;;;0.73;;
17079;SDS011;8655;57.106;-2.088;2023-03-13T08:29:38;0.97;;;0.70;;
17079;SDS011;8655;57.106;-2.088;2023-03-13T08:32:04;0.77;;;0.70;;
17079;SDS011;8655;57.106;-2.088;2023-03-13T08:34:29;0.98;;;0.70;;
17079;SDS011;8655;57.106;-2.088;2023-03-13T08:36:55;0.70;;;0.60;;
17079;SDS011;8655;57.106;-2.088;2023-03-13T08:39:22;0.60;;;0.60;;
17079;SDS011;8655;57.106;-2.088;2023-03-13T08:41:48;3.47;;;0.70;;
17079;SDS011;8655;57.106;-2.088;2023-03-13T08:44:15;0.97;;;0.83;;
17079;SDS011;8655;57.106;-2.088;2023-03-13T08:46:42;1.33;;;0.80;;
17079;SDS011;8655;57.106;-2.088;2023-03-13T08:49:08;0.83;;;0.53;;
17079;SDS011;8655;57.106;-2.088;2023-03-13T08:51:34;1.43;;;0.73;;
17079;SDS011;8655;57.106;-2.088;2023-03-13T08:54:01;0.63;;;0.60;;
17079;SDS011;8655;57.106;-2.088;2023-03-13T08:56:28;0.70;;;0.70;;
17079;SDS011;8655;57.106;-2.088;2023-03-13T08:58:58;0.85;;;0.63;;
17079;SDS011;8655;57.106;-2.088;2023-03-13T09:01:27;1.00;;;0.60;;
17079;SDS011;8655;57.106;-2.088;2023-03-13T09:03:54;0.80;;;0.80;;
17079;SDS011;8655;57.106;-2.088;2023-03-13T09:06:20;1.10;;;0.60;;
17079;SDS011;8655;57.106;-2.088;2023-03-13T09:08:46;1.07;;;0.73;;
17079;SDS011;8655;57.106;-2.088;2023-03-13T09:11:13;0.90;;;0.80;;
17079;SDS011;8655;57.106;-2.088;2023-03-13T09:13:41;1.58;;;0.80;;
17079;SDS011;8655;57.106;-2.088;2023-03-13T09:16:10;0.97;;;0.70;;
17079;SDS011;8655;57.106;-2.088;2023-03-13T09:18:38;0.98;;;0.70;;
17079;SDS011;8655;57.106;-2.088;2023-03-13T09:21:05;0.60;;;0.60;;
17079;SDS011;8655;57.106;-2.088;2023-03-13T09:23:32;1.37;;;0.97;;
17079;SDS011;8655;57.106;-2.088;2023-03-13T09:26:01;0.63;;;0.57;;
17079;SDS011;8655;57.106;-2.088;2023-03-13T09:28:27;1.37;;;0.80;;
17079;SDS011;8655;57.106;-2.088;2023-03-13T09:30:53;1.15;;;0.73;;
17079;SDS011;8655;57.106;-2.088;2023-03-13T09:33:20;2.70;;;0.75;;
17079;SDS011;8655;57.106;-2.088;2023-03-13T09:35:49;0.80;;;0.70;;
17079;SDS011;8655;57.106;-2.088;2023-03-13T09:38:15;1.30;;;0.93;;
17079;SDS011;8655;57.106;-2.088;2023-03-13T09:40:44;1.13;;;0.80;;
17079;SDS011;8655;57.106;-2.088;2023-03-13T09:46:01;1.63;;;0.80;;
17079;SDS011;8655;57.106;-2.088;2023-03-13T09:48:31;2.40;;;0.83;;
17079;SDS011;8655;57.106;-2.088;2023-03-13T09:53:46;0.80;;;0.80;;
17079;SDS011;8655;57.106;-2.088;2023-03-13T09:57:37;1.17;;;0.90;;
17079;SDS011;8655;57.106;-2.088;2023-03-13T09:59:46;1.40;;;0.50;;
17079;SDS011;8655;57.106;-2.088;2023-03-13T10:02:23;1.10;;;0.90;;
17079;SDS011;8655;57.106;-2.088;2023-03-13T10:05:05;1.80;;;0.97;;
17079;SDS011;8655;57.106;-2.088;2023-03-13T10:07:38;1.10;;;0.67;;
17079;SDS011;8655;57.106;-2.088;2023-03-13T10:10:06;1.30;;;0.70;;
17079;SDS011;8655;57.106;-2.088;2023-03-13T10:12:43;1.70;;;0.83;;
17079;SDS011;8655;57.106;-2.088;2023-03-13T10:18:09;1.80;;;0.80;;
17079;SDS011;8655;57.106;-2.088;2023-03-13T10:20:46;1.00;;;0.67;;
17079;SDS011;8655;57.106;-2.088;2023-03-13T10:25:42;1.10;;;0.80;;
17079;SDS011;8655;57.106;-2.088;2023-03-13T10:28:11;2.00;;;0.80;;
17079;SDS011;8655;57.106;-2.088;2023-03-13T10:30:45;1.33;;;0.80;;
17079;SDS011;8655;57.106;-2.088;2023-03-13T10:35:43;0.77;;;0.77;;
17079;SDS011;8655;57.106;-2.088;2023-03-13T10:38:10;0.87;;;0.60;;
17079;SDS011;8655;57.106;-2.088;2023-03-13T10:40:38;2.03;;;0.80;;
17079;SDS011;8655;57.106;-2.088;2023-03-13T10:43:26;0.97;;;0.80;;
17079;SDS011;8655;57.106;-2.088;2023-03-13T10:45:51;1.30;;;0.67;;
17079;SDS011;8655;57.106;-2.088;2023-03-13T10:48:21;0.90;;;0.60;;
17079;SDS011;8655;57.106;-2.088;2023-03-13T10:50:50;2.43;;;0.93;;
17079;SDS011;8655;57.106;-2.088;2023-03-13T10:53:23;0.97;;;0.60;;
17079;SDS011;8655;57.106;-2.088;2023-03-13T10:55:51;1.43;;;0.70;;
17079;SDS011;8655;57.106;-2.088;2023-03-13T10:58:19;0.77;;;0.60;;
17079;SDS011;8655;57.106;-2.088;2023-03-13T11:01:07;1.33;;;0.80;;
17079;SDS011;8655;57.106;-2.088;2023-03-13T11:03:57;1.30;;;0.77;;
17079;SDS011;8655;57.106;-2.088;2023-03-13T11:06:26;1.23;;;0.80;;
17079;SDS011;8655;57.106;-2.088;2023-03-13T11:09:13;0.70;;;0.70;;
17079;SDS011;8655;57.106;-2.088;2023-03-13T11:14:17;1.00;;;0.60;;
17079;SDS011;8655;57.106;-2.088;2023-03-13T11:16:49;1.40;;;0.90;;
17079;SDS011;8655;57.106;-2.088;2023-03-13T11:22:14;1.37;;;0.90;;
17079;SDS011;8655;57.106;-2.088;2023-03-13T11:32:48;0.60;;;0.40;;
17079;SDS011;8655;57.106;-2.088;2023-03-13T11:38:01;1.07;;;0.70;;
17079;SDS011;8655;57.106;-2.088;2023-03-13T12:00:41;0.83;;;0.70;;
17079;SDS011;8655;57.106;-2.088;2023-03-13T12:05:53;0.90;;;0.70;;
17079;SDS011;8655;57.106;-2.088;2023-03-13T12:08:29;0.60;;;0.60;;
17079;SDS011;8655;57.106;-2.088;2023-03-13T12:13:46;1.30;;;0.67;;
17079;SDS011;8655;57.106;-2.088;2023-03-13T12:16:18;1.40;;;0.80;;
17079;SDS011;8655;57.106;-2.088;2023-03-13T12:18:47;2.10;;;0.87;;
17079;SDS011;8655;57.106;-2.088;2023-03-13T12:27:22;1.10;;;0.70;;
17079;SDS011;8655;57.106;-2.088;2023-03-13T12:30:10;1.90;;;0.93;;
17079;SDS011;8655;57.106;-2.088;2023-03-13T12:32:39;1.43;;;0.70;;
17079;SDS011;8655;57.106;-2.088;2023-03-13T12:43:33;1.33;;;0.70;;
17079;SDS011;8655;57.106;-2.088;2023-03-13T12:46:11;1.83;;;1.00;;
17079;SDS011;8655;57.106;-2.088;2023-03-13T12:59:46;1.77;;;0.80;;
17079;SDS011;8655;57.106;-2.088;2023-03-13T13:02:19;1.13;;;0.90;;
17079;SDS011;8655;57.106;-2.088;2023-03-13T13:04:48;1.40;;;0.80;;
17079;SDS011;8655;57.106;-2.088;2023-03-13T13:12:35;2.33;;;1.10;;
17079;SDS011;8655;57.106;-2.088;2023-03-13T13:15:02;2.40;;;1.20;;
17079;SDS011;8655;57.106;-2.088;2023-03-13T13:20:41;1.43;;;0.80;;
17079;SDS011;8655;57.106;-2.088;2023-03-13T13:23:27;1.07;;;0.73;;
17079;SDS011;8655;57.106;-2.088;2023-03-13T13:29:00;1.97;;;1.00;;
17079;SDS011;8655;57.106;-2.088;2023-03-13T13:36:54;1.50;;;1.10;;
17079;SDS011;8655;57.106;-2.088;2023-03-13T13:47:25;1.50;;;1.10;;
17079;SDS011;8655;57.106;-2.088;2023-03-13T13:49:54;1.63;;;1.10;;
17079;SDS011;8655;57.106;-2.088;2023-03-13T13:52:40;1.53;;;1.03;;
17079;SDS011;8655;57.106;-2.088;2023-03-13T13:58:03;2.27;;;1.10;;
17079;SDS011;8655;57.106;-2.088;2023-03-13T14:00:57;2.30;;;1.00;;
17079;SDS011;8655;57.106;-2.088;2023-03-13T14:03:29;3.17;;;1.10;;
17079;SDS011;8655;57.106;-2.088;2023-03-13T14:08:43;2.47;;;1.20;;
17079;SDS011;8655;57.106;-2.088;2023-03-13T14:11:21;1.73;;;1.10;;
17079;SDS011;8655;57.106;-2.088;2023-03-13T14:16:37;2.03;;;1.20;;
17079;SDS011;8655;57.106;-2.088;2023-03-13T14:19:18;2.07;;;0.97;;
17079;SDS011;8655;57.106;-2.088;2023-03-13T14:21:48;3.50;;;1.40;;
17079;SDS011;8655;57.106;-2.088;2023-03-13T14:24:14;2.63;;;1.57;;
17079;SDS011;8655;57.106;-2.088;2023-03-13T14:26:43;2.50;;;1.30;;
17079;SDS011;8655;57.106;-2.088;2023-03-13T14:29:16;2.40;;;1.33;;
17079;SDS011;8655;57.106;-2.088;2023-03-13T14:31:51;3.03;;;1.53;;
17079;SDS011;8655;57.106;-2.088;2023-03-13T14:34:19;2.50;;;1.13;;
17079;SDS011;8655;57.106;-2.088;2023-03-13T14:36:46;4.43;;;1.47;;
17079;SDS011;8655;57.106;-2.088;2023-03-13T14:42:03;2.87;;;1.40;;
17079;SDS011;8655;57.106;-2.088;2023-03-13T14:44:34;3.77;;;1.50;;
17079;SDS011;8655;57.106;-2.088;2023-03-13T14:47:04;3.17;;;1.63;;
17079;SDS011;8655;57.106;-2.088;2023-03-13T14:49:32;2.90;;;1.33;;
17079;SDS011;8655;57.106;-2.088;2023-03-13T14:54:33;4.13;;;1.33;;
17079;SDS011;8655;57.106;-2.088;2023-03-13T14:57:14;3.40;;;1.60;;
17079;SDS011;8655;57.106;-2.088;2023-03-13T14:59:41;3.90;;;1.87;;
17079;SDS011;8655;57.106;-2.088;2023-03-13T15:07:46;2.23;;;1.23;;
17079;SDS011;8655;57.106;-2.088;2023-03-13T15:10:17;3.97;;;1.80;;
17079;SDS011;8655;57.106;-2.088;2023-03-13T15:12:46;3.40;;;1.50;;
17079;SDS011;8655;57.106;-2.088;2023-03-13T15:15:12;4.87;;;2.00;;
17079;SDS011;8655;57.106;-2.088;2023-03-13T15:17:38;4.50;;;1.97;;
17079;SDS011;8655;57.106;-2.088;2023-03-13T15:20:04;3.77;;;1.90;;
17079;SDS011;8655;57.106;-2.088;2023-03-13T15:22:34;2.97;;;1.60;;
17079;SDS011;8655;57.106;-2.088;2023-03-13T15:25:03;3.53;;;1.57;;
17079;SDS011;8655;57.106;-2.088;2023-03-13T15:27:38;3.10;;;1.63;;
17079;SDS011;8655;57.106;-2.088;2023-03-13T15:30:04;3.80;;;1.90;;
17079;SDS011;8655;57.106;-2.088;2023-03-13T15:32:37;3.50;;;1.93;;
17079;SDS011;8655;57.106;-2.088;2023-03-13T15:35:10;4.63;;;1.97;;
17079;SDS011;8655;57.106;-2.088;2023-03-13T15:37:48;4.63;;;1.90;;
17079;SDS011;8655;57.106;-2.088;2023-03-13T15:40:15;3.67;;;1.60;;
17079;SDS011;8655;57.106;-2.088;2023-03-13T15:42:41;5.20;;;2.00;;
17079;SDS011;8655;57.106;-2.088;2023-03-13T15:45:07;4.27;;;1.90;;
17079;SDS011;8655;57.106;-2.088;2023-03-13T15:47:33;4.70;;;1.90;;
17079;SDS011;8655;57.106;-2.088;2023-03-13T15:49:59;4.47;;;2.10;;
17079;SDS011;8655;57.106;-2.088;2023-03-13T15:52:25;3.93;;;1.83;;
17079;SDS011;8655;57.106;-2.088;2023-03-13T15:54:51;4.20;;;1.77;;
17079;SDS011;8655;57.106;-2.088;2023-03-13T15:57:17;4.43;;;2.00;;
17079;SDS011;8655;57.106;-2.088;2023-03-13T15:59:47;3.87;;;1.87;;
17079;SDS011;8655;57.106;-2.088;2023-03-13T16:02:14;6.43;;;1.90;;
17079;SDS011;8655;57.106;-2.088;2023-03-13T16:04:42;3.43;;;1.80;;
17079;SDS011;8655;57.106;-2.088;2023-03-13T16:07:13;4.93;;;2.07;;
17079;SDS011;8655;57.106;-2.088;2023-03-13T16:09:40;4.83;;;2.10;;
17079;SDS011;8655;57.106;-2.088;2023-03-13T16:12:07;6.20;;;2.10;;
17079;SDS011;8655;57.106;-2.088;2023-03-13T16:14:33;4.70;;;2.20;;
17079;SDS011;8655;57.106;-2.088;2023-03-13T16:16:59;4.67;;;2.30;;
17079;SDS011;8655;57.106;-2.088;2023-03-13T16:19:26;3.63;;;1.60;;
17079;SDS011;8655;57.106;-2.088;2023-03-13T16:21:52;5.17;;;2.20;;
17079;SDS011;8655;57.106;-2.088;2023-03-13T16:24:18;5.17;;;2.27;;
17079;SDS011;8655;57.106;-2.088;2023-03-13T16:26:44;5.43;;;2.10;;
17079;SDS011;8655;57.106;-2.088;2023-03-13T16:29:11;5.63;;;2.10;;
17079;SDS011;8655;57.106;-2.088;2023-03-13T16:31:40;5.77;;;2.20;;
17079;SDS011;8655;57.106;-2.088;2023-03-13T16:34:06;7.13;;;2.27;;
17079;SDS011;8655;57.106;-2.088;2023-03-13T16:36:33;6.23;;;2.57;;
17079;SDS011;8655;57.106;-2.088;2023-03-13T16:39:00;6.33;;;2.20;;
17079;SDS011;8655;57.106;-2.088;2023-03-13T16:41:32;5.37;;;2.20;;
17079;SDS011;8655;57.106;-2.088;2023-03-13T16:43:58;6.50;;;2.20;;
17079;SDS011;8655;57.106;-2.088;2023-03-13T16:46:35;5.20;;;2.17;;
17079;SDS011;8655;57.106;-2.088;2023-03-13T16:49:02;5.57;;;2.20;;
17079;SDS011;8655;57.106;-2.088;2023-03-13T16:51:28;4.23;;;1.80;;
17079;SDS011;8655;57.106;-2.088;2023-03-13T16:53:55;3.77;;;1.93;;
17079;SDS011;8655;57.106;-2.088;2023-03-13T16:59:05;4.07;;;2.20;;
17079;SDS011;8655;57.106;-2.088;2023-03-13T17:01:35;4.67;;;1.90;;
17079;SDS011;8655;57.106;-2.088;2023-03-13T17:04:01;5.27;;;2.10;;
17079;SDS011;8655;57.106;-2.088;2023-03-13T17:06:28;4.73;;;2.23;;
17079;SDS011;8655;57.106;-2.088;2023-03-13T17:08:56;4.57;;;2.20;;
17079;SDS011;8655;57.106;-2.088;2023-03-13T17:11:22;4.53;;;2.27;;
17079;SDS011;8655;57.106;-2.088;2023-03-13T17:13:49;4.27;;;1.90;;
17079;SDS011;8655;57.106;-2.088;2023-03-13T17:16:17;6.00;;;2.00;;
17079;SDS011;8655;57.106;-2.088;2023-03-13T17:18:45;5.13;;;2.17;;